createdAt,value
2018-07-27T00:01:36.219Z,27.20
2018-07-27T00:04:03.528Z,27.20
2018-07-27T00:06:30.836Z,27.10
2018-07-27T00:08:58.165Z,27.20
2018-07-27T00:11:25.483Z,27.10
2018-07-27T00:13:53.002Z,27.00
2018-07-27T00:16:20.379Z,27.00
2018-07-27T00:18:47.707Z,27.00
2018-07-27T00:21:15.112Z,26.90
2018-07-27T00:23:42.420Z,26.90
2018-07-27T00:26:09.727Z,26.90
2018-07-27T00:28:37.049Z,26.80
2018-07-27T00:31:04.381Z,26.80
2018-07-27T00:33:31.736Z,26.80
2018-07-27T00:35:59.081Z,26.80
2018-07-27T00:38:26.416Z,26.70
2018-07-27T00:40:53.826Z,26.70
2018-07-27T00:43:21.428Z,26.70
2018-07-27T00:45:48.728Z,26.60
2018-07-27T00:48:16.854Z,26.50
2018-07-27T00:50:44.247Z,26.50
2018-07-27T00:53:11.598Z,26.50
2018-07-27T00:55:38.953Z,26.40
2018-07-27T00:58:06.423Z,26.40
2018-07-27T01:00:33.759Z,26.30
2018-07-27T01:03:01.115Z,26.30
2018-07-27T01:05:28.483Z,26.30
2018-07-27T01:07:55.817Z,26.20
2018-07-27T01:10:23.148Z,26.20
2018-07-27T01:12:50.467Z,26.10
2018-07-27T01:15:17.782Z,26.10
2018-07-27T01:17:45.120Z,26.00
2018-07-27T01:20:12.483Z,26.00
2018-07-27T01:22:39.817Z,25.90
2018-07-27T01:25:07.287Z,25.90
2018-07-27T01:27:34.715Z,25.90
2018-07-27T01:30:02.104Z,25.90
2018-07-27T01:32:29.444Z,25.80
2018-07-27T01:34:57.031Z,25.80
2018-07-27T01:37:24.387Z,25.70
2018-07-27T01:39:51.727Z,25.60
2018-07-27T01:42:19.078Z,25.60
2018-07-27T01:47:14.435Z,25.40
2018-07-27T02:05:52.714Z,25.10
2018-07-27T02:08:19.995Z,25.10
2018-07-27T02:10:48.065Z,25.00
2018-07-27T02:13:15.523Z,25.00
2018-07-27T02:15:43.195Z,25.00
2018-07-27T02:18:10.735Z,25.10
2018-07-27T02:20:38.224Z,25.10
2018-07-27T02:23:05.557Z,25.10
2018-07-27T02:25:32.888Z,25.10
2018-07-27T02:28:00.228Z,25.10
2018-07-27T02:30:27.906Z,25.00
2018-07-27T02:32:55.245Z,25.00
2018-07-27T02:35:22.844Z,25.00
2018-07-27T02:37:50.204Z,24.90
2018-07-27T02:40:18.301Z,24.80
2018-07-27T02:42:45.652Z,24.70
2018-07-27T02:45:12.995Z,24.70
2018-07-27T02:47:40.339Z,24.70
2018-07-27T02:50:07.696Z,24.60
2018-07-27T02:52:34.997Z,24.60
2018-07-27T02:55:02.364Z,24.60
2018-07-27T02:57:29.700Z,24.50
2018-07-27T02:59:57.110Z,24.60
2018-07-27T03:02:24.435Z,24.50
2018-07-27T03:04:51.831Z,24.50
2018-07-27T03:07:19.141Z,24.50
2018-07-27T03:09:46.611Z,24.50
2018-07-27T03:12:13.848Z,24.40
2018-07-27T03:14:41.203Z,24.30
2018-07-27T03:17:08.547Z,24.30
2018-07-27T03:19:35.875Z,24.30
2018-07-27T03:22:03.227Z,24.20
2018-07-27T03:24:30.544Z,24.20
2018-07-27T03:26:57.911Z,24.20
2018-07-27T03:29:25.310Z,24.10
2018-07-27T03:31:52.623Z,24.10
2018-07-27T03:34:19.959Z,24.10
2018-07-27T03:36:47.299Z,24.10
2018-07-27T03:39:14.622Z,24.00
2018-07-27T03:41:41.981Z,24.00
2018-07-27T03:44:09.330Z,24.00
2018-07-27T03:46:36.715Z,24.10
2018-07-27T03:49:04.139Z,24.10
2018-07-27T03:51:31.467Z,24.00
2018-07-27T03:53:58.879Z,23.90
2018-07-27T03:56:26.259Z,24.00
2018-07-27T03:58:53.608Z,24.00
2018-07-27T04:01:20.979Z,24.10
2018-07-27T04:03:48.612Z,24.20
2018-07-27T04:06:15.956Z,24.20
2018-07-27T04:08:43.354Z,24.30
2018-07-27T04:11:10.654Z,24.40
2018-07-27T04:13:38.050Z,24.40
2018-07-27T04:16:05.403Z,24.40
2018-07-27T04:18:32.759Z,24.50
2018-07-27T04:21:00.111Z,24.50
2018-07-27T04:23:27.443Z,24.50
2018-07-27T04:25:54.784Z,24.50
2018-07-27T04:28:22.139Z,24.40
2018-07-27T04:30:49.712Z,24.50
2018-07-27T04:33:17.051Z,24.50
2018-07-27T04:35:44.437Z,24.40
2018-07-27T04:38:11.782Z,24.40
2018-07-27T04:40:39.139Z,24.40
2018-07-27T04:43:06.484Z,24.40
2018-07-27T04:45:33.919Z,24.50
2018-07-27T04:48:01.381Z,24.60
2018-07-27T04:50:28.726Z,24.60
2018-07-27T04:52:56.093Z,24.50
2018-07-27T04:55:23.435Z,24.50
2018-07-27T04:57:50.810Z,24.40
2018-07-27T05:00:18.179Z,24.30
2018-07-27T05:02:45.508Z,24.30
2018-07-27T05:05:12.863Z,24.30
2018-07-27T05:07:40.227Z,24.40
2018-07-27T05:10:13.231Z,24.40
2018-07-27T05:12:40.558Z,24.40
2018-07-27T05:15:08.044Z,24.40
2018-07-27T05:17:35.369Z,24.30
2018-07-27T05:20:02.747Z,24.40
2018-07-27T05:22:30.120Z,24.40
2018-07-27T05:24:57.438Z,24.40
2018-07-27T05:29:51.937Z,24.40
2018-07-27T05:32:19.311Z,24.40
2018-07-27T05:34:46.732Z,24.50
2018-07-27T05:39:41.252Z,24.50
2018-07-27T05:42:08.627Z,24.50
2018-07-27T05:44:36.020Z,24.60
2018-07-27T05:47:03.581Z,24.60
2018-07-27T05:49:30.847Z,24.60
2018-07-27T05:51:58.304Z,24.50
2018-07-27T05:54:25.626Z,24.30
2018-07-27T05:56:52.943Z,24.20
2018-07-27T05:59:21.014Z,24.30
2018-07-27T06:01:48.355Z,24.30
2018-07-27T06:04:15.757Z,24.40
2018-07-27T06:06:43.099Z,24.50
2018-07-27T06:09:11.071Z,24.50
2018-07-27T06:11:38.406Z,24.50
2018-07-27T06:14:05.783Z,24.50
2018-07-27T06:16:33.199Z,24.60
2018-07-27T06:19:00.597Z,24.60
2018-07-27T06:21:28.052Z,24.60
2018-07-27T06:23:55.469Z,24.70
2018-07-27T06:26:22.727Z,24.80
2018-07-27T06:28:50.095Z,24.90
2018-07-27T06:31:17.485Z,24.90
2018-07-27T06:33:44.823Z,24.90
2018-07-27T06:36:12.163Z,25.00
2018-07-27T06:38:39.508Z,25.10
2018-07-27T06:41:06.892Z,25.20
2018-07-27T06:43:34.247Z,25.20
2018-07-27T06:46:01.602Z,25.30
2018-07-27T06:48:28.969Z,25.20
2018-07-27T06:50:56.395Z,25.20
2018-07-27T06:53:23.749Z,25.30
2018-07-27T06:55:51.640Z,25.40
2018-07-27T06:58:18.992Z,25.50
2018-07-27T07:00:46.350Z,25.50
2018-07-27T07:03:13.700Z,25.60
2018-07-27T07:05:41.069Z,25.60
2018-07-27T07:08:08.419Z,25.60
2018-07-27T07:10:35.821Z,25.60
2018-07-27T07:13:03.173Z,25.60
2018-07-27T07:15:30.757Z,25.70
2018-07-27T07:17:58.102Z,25.70
2018-07-27T07:20:25.720Z,25.70
2018-07-27T07:22:53.132Z,25.70
2018-07-27T07:25:20.586Z,25.80
2018-07-27T07:27:47.880Z,25.80
2018-07-27T07:30:15.224Z,25.90
2018-07-27T07:32:42.555Z,25.90
2018-07-27T07:35:10.016Z,26.00
2018-07-27T07:37:37.355Z,26.10
2018-07-27T07:40:05.066Z,26.20
2018-07-27T07:42:32.456Z,26.20
2018-07-27T07:44:59.863Z,26.30
2018-07-27T07:47:27.235Z,26.30
2018-07-27T07:49:54.554Z,26.30
2018-07-27T07:52:22.592Z,26.40
2018-07-27T07:54:49.951Z,26.50
2018-07-27T07:57:17.465Z,26.50
2018-07-27T07:59:44.835Z,26.70
2018-07-27T08:02:12.219Z,26.70
2018-07-27T08:04:39.651Z,26.80
2018-07-27T08:07:07.031Z,26.90
2018-07-27T08:09:34.441Z,27.00
2018-07-27T08:12:01.795Z,27.10
2018-07-27T08:14:29.151Z,27.10
2018-07-27T08:16:56.535Z,27.20
2018-07-27T08:19:23.875Z,27.20
2018-07-27T08:21:51.279Z,27.30
2018-07-27T08:24:18.671Z,27.40
2018-07-27T08:26:53.111Z,27.40
2018-07-27T08:29:21.725Z,27.40
2018-07-27T08:31:49.997Z,27.50
2018-07-27T08:34:17.871Z,27.50
2018-07-27T08:36:45.342Z,27.60
2018-07-27T08:39:14.038Z,27.60
2018-07-27T08:41:41.776Z,27.70
2018-07-27T08:44:10.100Z,27.80
2018-07-27T08:46:37.699Z,27.80
2018-07-27T08:49:05.015Z,27.90
2018-07-27T08:51:32.729Z,28.00
2018-07-27T08:54:00.151Z,28.10
2018-07-27T08:56:27.514Z,28.20
2018-07-27T08:58:55.164Z,28.20
2018-07-27T09:01:22.819Z,28.20
2018-07-27T09:03:50.190Z,28.30
2018-07-27T09:06:18.051Z,28.40
2018-07-27T09:08:45.644Z,28.40
2018-07-27T09:11:13.315Z,28.40
2018-07-27T09:13:40.871Z,28.50
2018-07-27T09:16:08.532Z,28.50
2018-07-27T09:18:35.882Z,28.60
2018-07-27T09:21:03.292Z,28.60
2018-07-27T09:23:30.635Z,28.60
2018-07-27T09:25:58.195Z,28.70
2018-07-27T09:28:25.867Z,28.70
2018-07-27T09:30:54.408Z,28.80
2018-07-27T09:33:21.979Z,28.80
2018-07-27T09:35:49.349Z,28.90
2018-07-27T09:38:16.753Z,28.90
2018-07-27T09:40:44.123Z,28.90
2018-07-27T09:43:11.516Z,29.00
2018-07-27T09:45:38.868Z,29.10
2018-07-27T09:48:06.248Z,29.10
2018-07-27T09:50:33.673Z,29.20
2018-07-27T09:53:01.037Z,29.20
2018-07-27T09:55:28.399Z,29.20
2018-07-27T09:57:55.787Z,29.40
2018-07-27T10:00:28.731Z,29.40
2018-07-27T10:02:56.112Z,29.50
2018-07-27T10:05:23.487Z,29.60
2018-07-27T10:07:50.894Z,29.70
2018-07-27T10:10:18.297Z,29.80
2018-07-27T10:12:45.676Z,29.90
2018-07-27T10:15:12.980Z,29.90
2018-07-27T10:17:40.363Z,29.90
2018-07-27T10:20:07.697Z,30.00
2018-07-27T10:22:35.208Z,30.00
2018-07-27T10:25:02.552Z,30.00
2018-07-27T10:27:29.967Z,30.10
2018-07-27T10:29:57.478Z,30.20
2018-07-27T10:32:24.899Z,30.20
2018-07-27T10:34:52.241Z,30.30
2018-07-27T10:37:19.598Z,30.30
2018-07-27T10:39:46.934Z,30.30
2018-07-27T10:42:14.303Z,30.40
2018-07-27T10:44:41.671Z,30.40
2018-07-27T10:47:09.030Z,30.40
2018-07-27T10:49:36.372Z,30.40
2018-07-27T10:52:03.722Z,30.50
2018-07-27T10:54:31.072Z,30.60
2018-07-27T10:56:58.451Z,30.60
2018-07-27T10:59:25.781Z,30.60
2018-07-27T11:01:53.132Z,30.70
2018-07-27T11:04:20.495Z,30.70
2018-07-27T11:06:47.851Z,30.80
2018-07-27T11:09:15.205Z,30.80
2018-07-27T11:11:42.536Z,30.90
2018-07-27T11:14:09.922Z,31.00
2018-07-27T11:16:37.268Z,31.10
2018-07-27T11:19:04.602Z,31.10
2018-07-27T11:21:31.942Z,31.10
2018-07-27T11:23:59.319Z,31.20
2018-07-27T11:26:26.668Z,31.30
2018-07-27T11:28:54.031Z,31.30
2018-07-27T11:31:21.408Z,31.30
2018-07-27T11:33:48.764Z,31.40
2018-07-27T11:36:16.105Z,31.50
2018-07-27T11:38:43.561Z,31.60
2018-07-27T11:41:10.883Z,31.70
2018-07-27T11:43:38.235Z,31.70
2018-07-27T11:46:05.646Z,31.80
2018-07-27T11:48:33.138Z,31.90
2018-07-27T11:51:00.460Z,31.90
2018-07-27T11:53:27.798Z,32.00
2018-07-27T11:58:23.482Z,32.20
2018-07-27T12:00:50.838Z,32.40
2018-07-27T12:03:18.181Z,32.50
2018-07-27T12:05:45.605Z,32.60
2018-07-27T12:08:12.908Z,32.70
2018-07-27T12:10:41.532Z,32.80
2018-07-27T12:13:08.895Z,33.00
2018-07-27T12:15:36.267Z,33.10
2018-07-27T12:18:03.649Z,33.30
2018-07-27T12:20:31.291Z,33.60
2018-07-27T12:22:58.834Z,33.60
2018-07-27T12:25:26.481Z,33.80
2018-07-27T12:27:53.824Z,34.10
2018-07-27T12:30:21.150Z,34.40
2018-07-27T12:32:48.508Z,34.80
2018-07-27T12:35:15.855Z,35.50
2018-07-27T12:37:43.186Z,36.20
2018-07-27T12:40:10.555Z,36.70
2018-07-27T12:42:38.034Z,37.10
2018-07-27T12:45:05.384Z,37.50
2018-07-27T12:47:32.842Z,37.90
2018-07-27T12:50:00.244Z,38.00
2018-07-27T12:52:27.589Z,38.00
2018-07-27T12:54:54.954Z,38.50
2018-07-27T12:57:22.283Z,38.90
2018-07-27T12:59:49.635Z,39.30
2018-07-27T13:02:17.148Z,40.00
2018-07-27T13:04:44.469Z,40.80
2018-07-27T13:07:11.932Z,40.20
2018-07-27T13:09:39.262Z,38.30
2018-07-27T13:12:06.587Z,37.60
2018-07-27T13:17:01.346Z,38.80
2018-07-27T13:19:28.646Z,39.30
2018-07-27T13:21:56.051Z,40.10
2018-07-27T13:26:50.923Z,41.60
2018-07-27T13:29:18.247Z,42.80
2018-07-27T13:31:51.514Z,43.70
2018-07-27T13:34:50.118Z,43.10
2018-07-27T13:37:18.110Z,42.20
2018-07-27T13:39:46.180Z,40.60
2018-07-27T13:42:14.803Z,39.60
2018-07-27T13:44:42.602Z,38.20
2018-07-27T13:47:10.230Z,37.30
2018-07-27T13:49:37.543Z,37.60
2018-07-27T13:52:04.976Z,38.40
2018-07-27T13:54:33.186Z,39.10
2018-07-27T13:57:00.747Z,39.70
2018-07-27T13:59:28.163Z,39.60
2018-07-27T14:01:55.568Z,39.80
2018-07-27T14:04:22.916Z,40.10
2018-07-27T14:06:52.446Z,40.30
2018-07-27T14:09:19.785Z,40.60
2018-07-27T14:11:47.129Z,41.10
2018-07-27T14:14:14.777Z,42.20
2018-07-27T14:16:42.333Z,42.70
2018-07-27T14:19:09.892Z,42.10
2018-07-27T14:21:37.244Z,41.40
2018-07-27T14:24:04.715Z,41.30
2018-07-27T14:26:32.062Z,41.40
2018-07-27T14:28:59.368Z,41.40
2018-07-27T14:31:26.843Z,42.10
2018-07-27T14:33:54.376Z,42.50
2018-07-27T14:36:21.943Z,42.10
2018-07-27T14:38:49.799Z,42.50
2018-07-27T14:41:17.511Z,42.90
2018-07-27T14:43:44.996Z,43.80
2018-07-27T14:46:12.382Z,43.80
2018-07-27T14:48:39.735Z,43.80
2018-07-27T14:51:07.056Z,44.10
2018-07-27T14:53:34.368Z,44.70
2018-07-27T14:56:01.720Z,44.40
2018-07-27T14:58:29.049Z,43.10
2018-07-27T15:00:56.452Z,43.10
2018-07-27T15:03:23.842Z,43.40
2018-07-27T15:05:51.155Z,43.80
2018-07-27T15:08:18.477Z,43.30
2018-07-27T15:10:45.874Z,43.40
2018-07-27T15:13:13.822Z,43.90
2018-07-27T15:15:41.172Z,44.50
2018-07-27T15:18:08.729Z,44.10
2018-07-27T15:20:36.403Z,43.90
2018-07-27T15:23:03.862Z,43.30
2018-07-27T15:25:31.636Z,42.60
2018-07-27T15:27:59.538Z,42.00
2018-07-27T15:30:26.929Z,41.60
2018-07-27T15:32:54.404Z,41.20
2018-07-27T15:35:21.707Z,41.30
2018-07-27T15:37:49.107Z,42.30
2018-07-27T15:40:16.434Z,41.80
2018-07-27T15:42:43.846Z,41.00
2018-07-27T15:45:11.195Z,40.30
2018-07-27T15:47:38.774Z,40.40
2018-07-27T15:50:06.360Z,40.60
2018-07-27T15:52:33.736Z,40.30
2018-07-27T15:55:01.300Z,39.80
2018-07-27T15:57:28.643Z,39.20
2018-07-27T15:59:56.004Z,38.90
2018-07-27T16:02:23.382Z,38.60
2018-07-27T16:04:50.699Z,38.30
2018-07-27T16:07:18.043Z,38.10
2018-07-27T16:09:45.474Z,38.00
2018-07-27T16:12:12.768Z,37.80
2018-07-27T16:14:40.071Z,37.70
2018-07-27T16:17:07.495Z,37.50
2018-07-27T16:19:34.842Z,37.50
2018-07-27T16:22:02.215Z,37.70
2018-07-27T16:24:31.111Z,37.40
2018-07-27T16:26:58.436Z,37.00
2018-07-27T16:29:26.176Z,36.70
2018-07-27T16:31:53.507Z,36.30
2018-07-27T16:34:20.890Z,36.10
2018-07-27T16:36:48.354Z,36.20
2018-07-27T16:39:15.730Z,36.30
2018-07-27T16:41:43.039Z,36.20
2018-07-27T16:44:10.386Z,36.10
2018-07-27T16:46:37.748Z,36.00
2018-07-27T16:49:05.346Z,36.10
2018-07-27T16:51:33.648Z,36.30
2018-07-27T16:54:01.269Z,36.30
2018-07-27T16:56:29.051Z,36.20
2018-07-27T16:58:56.398Z,35.90
2018-07-27T17:01:23.707Z,35.70
2018-07-27T17:03:51.139Z,35.50
2018-07-27T17:06:18.470Z,35.50
2018-07-27T17:11:12.947Z,35.30
2018-07-27T17:13:40.299Z,35.20
2018-07-27T17:16:07.605Z,35.30
2018-07-27T17:18:35.020Z,35.20
2018-07-27T17:21:02.347Z,35.20
2018-07-27T17:23:29.650Z,35.20
2018-07-27T17:25:56.991Z,35.40
2018-07-27T17:28:24.321Z,35.40
2018-07-27T17:30:51.664Z,35.40
2018-07-27T17:33:18.980Z,35.40
2018-07-27T17:35:47.151Z,35.40
2018-07-27T17:38:14.548Z,35.40
2018-07-27T17:40:41.905Z,35.20
2018-07-27T17:43:09.366Z,35.10
2018-07-27T17:45:36.671Z,35.00
2018-07-27T17:48:04.041Z,35.00
2018-07-27T17:50:31.795Z,34.60
2018-07-27T17:53:00.140Z,34.10
2018-07-27T17:55:27.437Z,33.90
2018-07-27T17:57:55.446Z,33.80
2018-07-27T18:00:23.088Z,33.80
2018-07-27T18:05:17.597Z,33.00
2018-07-27T18:07:45.054Z,32.80
2018-07-27T18:10:12.283Z,32.70
2018-07-27T18:12:39.781Z,32.60
2018-07-27T18:15:07.339Z,32.60
2018-07-27T18:17:34.648Z,32.50
2018-07-27T18:20:02.313Z,32.40
2018-07-27T18:22:29.627Z,32.40
2018-07-27T18:24:56.978Z,32.30
2018-07-27T18:27:24.327Z,32.20
2018-07-27T18:29:51.647Z,32.20
2018-07-27T18:32:19.037Z,32.00
2018-07-27T18:34:46.391Z,31.70
2018-07-27T18:37:13.700Z,31.60
2018-07-27T18:39:41.081Z,31.60
2018-07-27T18:42:08.378Z,31.40
2018-07-27T18:44:35.787Z,31.40
2018-07-27T18:47:03.592Z,31.30
2018-07-27T18:58:18.899Z,32.40
2018-07-27T19:00:46.903Z,31.60
2018-07-27T19:03:14.885Z,31.20
2018-07-27T19:05:42.835Z,31.10
2018-07-27T19:08:10.913Z,30.90
2018-07-27T19:10:38.886Z,30.90
2018-07-27T19:13:06.840Z,31.00
2018-07-27T19:15:34.898Z,30.90
2018-07-27T19:18:02.969Z,30.80
2018-07-27T19:20:32.155Z,30.70
2018-07-27T19:23:00.103Z,30.60
2018-07-27T19:25:28.093Z,30.40
2018-07-27T19:27:56.220Z,30.40
2018-07-27T19:30:24.157Z,30.30
2018-07-27T19:32:52.357Z,30.30
2018-07-27T19:35:20.308Z,30.20
2018-07-27T19:37:48.344Z,30.20
2018-07-27T19:40:16.418Z,30.20
2018-07-27T19:42:44.379Z,30.10
2018-07-27T19:45:15.567Z,30.00
2018-07-27T19:47:43.560Z,30.00
2018-07-27T19:50:11.520Z,30.00
2018-07-27T19:52:39.509Z,29.90
2018-07-27T19:55:07.481Z,29.90
2018-07-27T19:57:35.596Z,30.00
2018-07-27T20:00:05.960Z,29.90
2018-07-27T20:02:34.793Z,30.00
2018-07-27T20:05:02.955Z,29.90
2018-07-27T20:07:31.202Z,29.90
2018-07-27T20:09:59.321Z,29.90
2018-07-27T20:12:27.286Z,29.90
2018-07-27T20:14:55.295Z,29.90
2018-07-27T20:17:23.245Z,29.80
2018-07-27T20:19:51.839Z,29.70
2018-07-27T20:22:19.805Z,29.70
2018-07-27T20:24:47.819Z,29.60
2018-07-27T20:27:15.821Z,29.60
2018-07-27T20:29:43.789Z,29.60
2018-07-27T20:32:11.841Z,29.60
2018-07-27T20:34:39.812Z,29.50
2018-07-27T20:37:07.871Z,29.60
2018-07-27T20:39:35.803Z,29.50
2018-07-27T20:42:03.799Z,29.50
2018-07-27T20:44:31.780Z,29.40
2018-07-27T20:46:59.736Z,29.40
2018-07-27T20:49:27.676Z,29.20
2018-07-27T20:51:59.956Z,29.20
2018-07-27T20:54:28.127Z,29.10
2018-07-27T20:56:56.215Z,28.90
2018-07-27T20:59:24.161Z,28.80
2018-07-27T21:01:52.213Z,28.80
2018-07-27T21:04:20.174Z,28.70
2018-07-27T21:06:48.175Z,28.60
2018-07-27T21:09:16.144Z,28.50
2018-07-27T21:11:44.115Z,28.40
2018-07-27T21:14:12.160Z,28.20
2018-07-27T21:16:40.378Z,28.30
2018-07-27T21:19:08.353Z,28.30
2018-07-27T21:21:36.466Z,28.20
2018-07-27T21:24:04.356Z,28.20
2018-07-27T21:26:32.403Z,28.20
2018-07-27T21:29:00.436Z,28.10
2018-07-27T21:31:28.492Z,28.10
2018-07-27T21:33:56.424Z,28.00
2018-07-27T21:36:24.567Z,28.00
2018-07-27T21:38:52.553Z,27.90
2018-07-27T21:41:20.573Z,27.90
2018-07-27T21:43:48.542Z,27.90
2018-07-27T21:46:16.527Z,27.80
2018-07-27T21:48:44.498Z,27.70
2018-07-27T21:51:12.445Z,27.70
2018-07-27T21:53:40.394Z,27.60
2018-07-27T21:56:08.487Z,27.50
2018-07-27T21:58:36.475Z,27.50
2018-07-27T22:01:04.678Z,27.40
2018-07-27T22:03:32.622Z,27.40
2018-07-27T22:06:00.560Z,27.40
2018-07-27T22:08:28.976Z,27.30
2018-07-27T22:10:56.952Z,27.30
2018-07-27T22:13:24.885Z,27.30
2018-07-27T22:15:52.853Z,27.10
2018-07-27T22:18:20.830Z,27.10
2018-07-27T22:20:48.800Z,27.00
2018-07-27T22:23:16.753Z,27.00
2018-07-27T22:25:44.736Z,27.00
2018-07-27T22:30:40.619Z,26.90
2018-07-27T22:33:08.630Z,26.90
2018-07-27T22:35:36.825Z,26.80
2018-07-27T22:38:04.998Z,26.70
2018-07-27T22:40:32.958Z,26.80
2018-07-27T22:43:00.906Z,26.80
2018-07-27T22:45:28.860Z,26.70
2018-07-27T22:47:56.915Z,26.80
2018-07-27T22:50:24.848Z,26.80
2018-07-27T22:52:52.783Z,26.90
2018-07-27T22:55:20.745Z,26.80
2018-07-27T22:57:48.752Z,26.80
2018-07-27T23:00:16.750Z,26.70
2018-07-27T23:02:44.701Z,26.70
2018-07-27T23:05:13.185Z,26.70
2018-07-27T23:07:41.187Z,26.60
2018-07-27T23:10:10.251Z,26.50
2018-07-27T23:17:35.668Z,26.40
2018-07-27T23:20:06.330Z,26.40
2018-07-27T23:22:34.324Z,26.40
2018-07-27T23:25:02.309Z,26.30
2018-07-27T23:27:30.331Z,26.30
2018-07-27T23:29:58.308Z,26.20
2018-07-27T23:32:26.302Z,26.20
2018-07-27T23:34:54.272Z,26.10
2018-07-27T23:37:22.264Z,26.20
2018-07-27T23:39:50.254Z,26.30
2018-07-27T23:42:18.236Z,26.50
2018-07-27T23:44:46.228Z,26.40
2018-07-27T23:47:14.307Z,26.30
2018-07-27T23:49:42.296Z,26.40
2018-07-27T23:52:10.301Z,26.40
2018-07-27T23:54:38.319Z,26.50
2018-07-27T23:57:06.415Z,26.40
2018-07-27T23:59:34.422Z,26.30
